Time;durP1;ratioP1;P1;durP2;ratioP2;P2;SDS_P1;SDS_P2;PMS_P1;PMS_P2;Temp;Humidity;BMP_temperature;BMP_pressure;BME280_temperature;BME280_humidity;BME280_pressure;Samples;Min_cycle;Max_cycle;Signal;HPM_P1;HPM_P2
2023/10/14 00:01:51;;;;;;;8.90;6.23;;;;;;;16.17;70.71;95269.25;5093142;28;20512;-80
2023/10/14 00:04:22;;;;;;;11.50;8.10;;;;;;;16.08;71.01;95261.25;5093037;28;20451;-80
2023/10/14 00:06:49;;;;;;;9.03;6.80;;;;;;;16.01;71.27;95256.72;5092950;28;20496;-80
2023/10/14 00:09:16;;;;;;;12.57;6.20;;;;;;;15.82;72.47;95248.97;5093245;28;20437;-80
2023/10/14 00:11:46;;;;;;;11.43;6.90;;;;;;;15.87;72.67;95244.88;5092944;28;20796;-80
2023/10/14 00:14:16;;;;;;;12.70;7.30;;;;;;;15.98;73.31;95247.28;5093028;28;20483;-80
2023/10/14 00:16:49;;;;;;;5.93;5.33;;;;;;;15.88;71.63;95246.53;5093050;28;20455;-80
2023/10/14 00:19:18;;;;;;;9.70;6.63;;;;;;;15.81;72.64;95226.97;5092857;28;20499;-80
2023/10/14 00:21:48;;;;;;;7.83;6.20;;;;;;;15.84;72.50;95226.66;5093231;28;20529;-80
2023/10/14 00:24:25;;;;;;;14.53;6.90;;;;;;;15.75;72.60;95230.22;5093122;28;20877;-80
2023/10/14 00:26:52;;;;;;;10.33;7.27;;;;;;;15.75;72.26;95224.94;5095747;28;20629;-80
2023/10/14 00:29:19;;;;;;;9.47;6.93;;;;;;;15.67;73.57;95220.41;5096904;28;20477;-80
2023/10/14 00:31:48;;;;;;;11.27;7.27;;;;;;;15.62;72.83;95222.69;5096810;28;20436;-79
2023/10/14 00:34:15;;;;;;;10.40;7.00;;;;;;;15.59;74.05;95219.50;5096987;28;20682;-80
2023/10/14 00:36:42;;;;;;;7.77;6.20;;;;;;;15.66;74.29;95220.56;5096623;28;20530;-80
2023/10/14 00:39:15;;;;;;;10.20;6.73;;;;;;;15.57;74.45;95234.66;5097103;28;20471;-80
2023/10/14 00:41:43;;;;;;;9.30;6.40;;;;;;;15.57;73.93;95229.38;5096903;28;20795;-81
2023/10/14 00:44:10;;;;;;;11.57;6.57;;;;;;;15.49;74.01;95233.63;5096761;28;20479;-80
2023/10/14 00:46:42;;;;;;;11.73;7.80;;;;;;;15.58;73.75;95231.03;5096460;28;20948;-80
2023/10/14 00:49:11;;;;;;;16.40;6.47;;;;;;;15.40;73.64;95234.53;5097112;28;20457;-80
2023/10/14 00:51:42;;;;;;;8.80;8.00;;;;;;;15.34;73.78;95227.22;5096979;28;20779;-81
2023/10/14 00:54:12;;;;;;;12.03;7.37;;;;;;;15.37;73.48;95226.06;5096728;28;20487;-80
2023/10/14 00:56:42;;;;;;;8.00;6.47;;;;;;;15.37;73.98;95221.63;5096385;28;20441;-80
2023/10/14 00:59:10;;;;;;;11.10;7.00;;;;;;;15.34;74.08;95216.63;5077822;28;20467;-81
2023/10/14 01:01:55;;;;;;;11.10;7.30;;;;;;;15.33;73.45;95220.25;5096133;28;20444;-80
2023/10/14 01:04:31;;;;;;;11.90;7.07;;;;;;;15.27;73.53;95217.34;5096108;28;20445;-80
2023/10/14 01:07:04;;;;;;;9.10;6.90;;;;;;;15.35;74.13;95213.00;5095786;28;20796;-81
2023/10/14 01:09:41;;;;;;;11.90;6.50;;;;;;;15.38;73.71;95212.69;5096428;28;20476;-80
2023/10/14 01:12:16;;;;;;;8.53;6.43;;;;;;;15.40;73.45;95210.72;5096209;28;20447;-81
2023/10/14 01:14:43;;;;;;;13.27;6.80;;;;;;;15.45;73.69;95210.28;5096662;28;20959;-80
2023/10/14 01:17:11;;;;;;;8.03;6.23;;;;;;;15.47;72.81;95214.41;5096254;28;20450;-80
2023/10/14 01:19:38;;;;;;;12.17;6.90;;;;;;;15.48;72.73;95208.16;5096020;28;20505;-81
2023/10/14 01:22:05;;;;;;;9.80;6.47;;;;;;;15.41;71.85;95215.03;5096315;28;20479;-80
2023/10/14 01:24:41;;;;;;;7.80;6.57;;;;;;;15.28;72.56;95214.56;5096060;28;20451;-81
2023/10/14 01:27:09;;;;;;;6.80;6.17;;;;;;;15.27;73.21;95207.63;5078224;28;20448;-81
2023/10/14 01:29:40;;;;;;;7.30;6.50;;;;;;;15.26;72.58;95200.66;5095832;28;20453;-81
2023/10/14 01:32:42;;;;;;;8.13;5.77;;;;;;;15.05;72.44;95202.78;5096019;28;20451;-81
2023/10/14 01:35:23;;;;;;;8.07;6.97;;;;;;;15.07;72.18;95203.47;5096147;28;20915;-81
2023/10/14 01:37:51;;;;;;;8.90;7.70;;;;;;;15.10;72.15;95205.81;5095229;28;20445;-81
2023/10/14 01:40:29;;;;;;;14.07;7.10;;;;;;;15.13;72.07;95208.97;5095682;28;20904;-80
2023/10/14 01:42:58;;;;;;;10.07;7.07;;;;;;;15.04;72.12;95203.78;5095302;28;20457;-80
2023/10/14 01:45:29;;;;;;;10.70;7.37;;;;;;;15.02;72.50;95208.34;5095476;28;20449;-81
2023/10/14 01:48:12;;;;;;;7.97;7.13;;;;;;;14.99;72.92;95201.56;5095032;28;20452;-80
2023/10/14 01:50:44;;;;;;;9.43;7.23;;;;;;;14.98;72.06;95196.41;5095315;28;20819;-81
2023/10/14 01:53:11;;;;;;;13.60;7.73;;;;;;;14.99;72.02;95200.72;5095268;28;20817;-80
2023/10/14 01:55:42;;;;;;;16.03;6.63;;;;;;;14.98;73.26;95202.53;5095542;28;20480;-80
2023/10/14 01:58:10;;;;;;;14.47;7.13;;;;;;;14.97;72.65;95205.31;5095299;28;20534;-81
2023/10/14 02:00:39;;;;;;;12.33;7.90;;;;;;;14.91;73.11;95201.47;5094970;28;20818;-80
2023/10/14 02:03:07;;;;;;;9.20;6.83;;;;;;;14.94;72.43;95208.28;5095002;28;20761;-81
2023/10/14 02:05:40;;;;;;;10.50;7.70;;;;;;;14.92;72.37;95197.84;5094968;28;20845;-80
2023/10/14 02:08:13;;;;;;;12.30;7.37;;;;;;;14.94;71.76;95205.63;5095081;28;20479;-81
2023/10/14 02:10:46;;;;;;;8.97;7.27;;;;;;;14.93;72.40;95201.31;5095105;28;20440;-80
2023/10/14 02:13:15;;;;;;;7.63;6.80;;;;;;;14.89;72.28;95187.59;5094843;28;20577;-81
2023/10/14 02:15:46;;;;;;;16.87;6.97;;;;;;;14.88;72.71;95192.03;5094747;28;20506;-80
2023/10/14 02:18:13;;;;;;;13.47;6.77;;;;;;;14.91;72.53;95196.19;5094646;28;20473;-80
2023/10/14 02:20:56;;;;;;;8.13;6.63;;;;;;;14.91;72.18;95195.34;5094925;28;20448;-81
2023/10/14 02:23:25;;;;;;;12.20;8.23;;;;;;;14.87;72.54;95195.66;5094645;28;20529;-80
2023/10/14 02:25:57;;;;;;;11.90;6.30;;;;;;;14.84;72.59;95195.13;5094695;28;20476;-80
2023/10/14 02:28:24;;;;;;;11.37;7.53;;;;;;;14.76;73.28;95181.84;5094396;28;20461;-79
2023/10/14 02:30:59;;;;;;;14.37;8.40;;;;;;;14.77;73.36;95188.78;5094504;28;20454;-80
2023/10/14 02:33:26;;;;;;;11.43;6.50;;;;;;;14.69;73.61;95183.38;5094683;28;20515;-80
2023/10/14 02:35:59;;;;;;;8.07;6.50;;;;;;;14.64;74.10;95185.66;5094460;28;20498;-80
2023/10/14 02:38:26;;;;;;;10.57;6.43;;;;;;;14.66;74.32;95181.88;5094555;28;20775;-80
2023/10/14 02:41:01;;;;;;;7.30;6.60;;;;;;;14.69;75.41;95178.94;5094347;28;20458;-80
2023/10/14 02:43:30;;;;;;;9.10;7.03;;;;;;;14.65;75.22;95180.22;5094025;28;20451;-81
2023/10/14 02:46:01;;;;;;;10.63;6.87;;;;;;;14.56;75.33;95181.09;5094327;28;20520;-80
2023/10/14 02:48:52;;;;;;;8.57;5.80;;;;;;;14.61;76.62;95180.66;5094138;28;20444;-80
2023/10/14 02:51:17;;;;;;;8.90;6.00;;;;;;;14.55;76.29;95182.09;5094008;28;20759;-79
2023/10/14 02:53:45;;;;;;;9.90;7.10;;;;;;;14.55;77.51;95179.44;5094028;28;20483;-80
2023/10/14 02:56:21;;;;;;;8.43;7.17;;;;;;;14.46;76.71;95175.88;5093895;28;20439;-80
2023/10/14 02:58:48;;;;;;;9.30;6.70;;;;;;;14.46;76.80;95173.25;5094170;28;20450;-80
2023/10/14 03:01:16;;;;;;;7.50;6.20;;;;;;;14.55;77.10;95174.16;5093966;28;20466;-80
2023/10/14 03:03:42;;;;;;;12.13;7.07;;;;;;;14.54;76.12;95175.97;5093731;28;20455;-80
2023/10/14 03:06:14;;;;;;;9.37;6.63;;;;;;;14.56;75.57;95175.81;5093941;28;20522;-80
2023/10/14 03:08:57;;;;;;;9.77;6.10;;;;;;;14.54;76.02;95172.50;5093540;28;20523;-80
2023/10/14 03:11:26;;;;;;;7.93;6.53;;;;;;;14.64;76.90;95180.38;5093854;28;20447;-80
2023/10/14 03:13:52;;;;;;;10.03;7.00;;;;;;;14.62;75.81;95185.78;5093528;28;20518;-80
2023/10/14 03:16:19;;;;;;;10.13;7.10;;;;;;;14.71;75.28;95178.78;5093655;28;20447;-80
2023/10/14 03:18:46;;;;;;;10.40;7.27;;;;;;;14.77;75.04;95184.34;5093649;28;20518;-80
2023/10/14 03:21:27;;;;;;;13.13;7.70;;;;;;;14.82;75.51;95181.25;5079275;28;20966;-80
2023/10/14 03:23:56;;;;;;;7.27;5.90;;;;;;;14.79;75.23;95184.19;5081999;28;20452;-80
2023/10/14 03:26:28;;;;;;;9.73;6.60;;;;;;;14.78;75.16;95190.44;5093590;28;20443;-80
2023/10/14 03:28:54;;;;;;;10.53;7.57;;;;;;;14.79;75.68;95187.66;5093249;28;20450;-80
2023/10/14 03:31:23;;;;;;;10.40;6.57;;;;;;;14.77;74.91;95183.50;5093310;28;20474;-80
2023/10/14 03:33:52;;;;;;;10.00;6.30;;;;;;;14.78;74.70;95187.81;5073946;28;20495;-79
2023/10/14 03:36:22;;;;;;;8.17;6.40;;;;;;;14.83;75.34;95178.44;5093545;28;20574;-80
2023/10/14 03:38:57;;;;;;;7.57;6.10;;;;;;;14.82;74.15;95179.44;5093319;28;21039;-80
2023/10/14 03:41:29;;;;;;;6.43;5.80;;;;;;;14.91;74.41;95182.97;5093191;28;20444;-80
2023/10/14 03:44:00;;;;;;;7.37;6.10;;;;;;;14.92;74.29;95181.16;5093430;28;20451;-80
2023/10/14 03:46:32;;;;;;;7.70;6.03;;;;;;;14.92;73.83;95175.88;5057772;28;20432;-81
2023/10/14 03:49:06;;;;;;;9.20;5.87;;;;;;;14.96;75.36;95177.25;5093176;28;20452;-79
2023/10/14 03:51:35;;;;;;;8.10;7.30;;;;;;;14.90;74.48;95170.75;5093388;28;20444;-80
2023/10/14 03:54:08;;;;;;;8.00;6.27;;;;;;;14.86;74.21;95174.66;5092644;28;20489;-80
2023/10/14 03:56:36;;;;;;;13.30;6.03;;;;;;;14.81;75.80;95172.47;5093100;28;20926;-79
2023/10/14 03:59:05;;;;;;;10.23;6.60;;;;;;;14.82;74.78;95174.13;5092778;28;20454;-80
2023/10/14 04:01:43;;;;;;;9.90;5.87;;;;;;;14.84;74.92;95171.34;5092754;28;20465;-80
2023/10/14 04:04:17;;;;;;;7.20;5.97;;;;;;;14.82;74.00;95166.22;5093191;28;20440;-80
2023/10/14 04:06:55;;;;;;;13.10;6.47;;;;;;;14.82;74.55;95168.84;5093418;28;20459;-81
2023/10/14 04:09:24;;;;;;;8.13;6.03;;;;;;;14.77;74.81;95157.09;5093064;28;20841;-80
2023/10/14 04:11:57;;;;;;;12.80;5.90;;;;;;;14.77;75.38;95163.19;5092870;28;20471;-79
2023/10/14 04:14:27;;;;;;;11.37;6.40;;;;;;;14.81;74.94;95158.44;5074381;28;21081;-79
2023/10/14 04:17:09;;;;;;;7.73;6.93;;;;;;;14.80;75.37;95165.53;5092871;28;20787;-79
2023/10/14 04:19:45;;;;;;;10.13;6.50;;;;;;;14.78;76.29;95153.47;5092868;28;20452;-79
2023/10/14 04:22:27;;;;;;;12.70;7.33;;;;;;;14.74;75.63;95152.06;5092802;28;20449;-78
2023/10/14 04:25:07;;;;;;;10.20;6.17;;;;;;;14.69;75.68;95155.16;5092714;28;20440;-79
2023/10/14 04:27:37;;;;;;;11.80;7.40;;;;;;;14.65;73.79;95156.44;5092539;28;20929;-79
2023/10/14 04:30:11;;;;;;;11.03;7.17;;;;;;;14.48;73.94;95151.97;5092875;28;20457;-79
2023/10/14 04:32:46;;;;;;;11.20;6.57;;;;;;;14.30;74.39;95154.53;5072761;28;20531;-79
2023/10/14 04:35:13;;;;;;;7.97;6.40;;;;;;;14.21;74.74;95161.50;5072103;28;20832;-79
2023/10/14 04:37:51;;;;;;;8.73;7.37;;;;;;;13.83;76.01;95161.63;5072621;28;21007;-79
2023/10/14 04:40:36;;;;;;;13.23;6.63;;;;;;;13.84;76.82;95165.94;5072665;28;20471;-79
2023/10/14 04:43:11;;;;;;;17.20;7.80;;;;;;;13.35;78.38;95170.47;5072853;28;20447;-79
2023/10/14 04:45:38;;;;;;;16.80;7.70;;;;;;;13.38;79.26;95170.19;5054894;28;20454;-79
2023/10/14 04:48:06;;;;;;;12.10;6.83;;;;;;;13.32;79.40;95174.22;5072524;28;20443;-79
2023/10/14 04:50:33;;;;;;;12.23;7.33;;;;;;;13.08;79.23;95175.56;5072680;28;20838;-77
2023/10/14 04:53:00;;;;;;;18.33;8.30;;;;;;;13.03;79.67;95173.38;5053313;28;20441;-78
2023/10/14 04:55:28;;;;;;;18.60;9.33;;;;;;;12.98;79.76;95172.91;5072669;28;20517;-78
2023/10/14 04:58:11;;;;;;;28.53;8.30;;;;;;;13.06;80.23;95172.25;5072160;28;20529;-78
2023/10/14 05:00:45;;;;;;;23.80;9.30;;;;;;;13.19;79.60;95168.38;5055685;28;20455;-77
2023/10/14 05:03:13;;;;;;;13.67;8.30;;;;;;;13.34;80.00;95166.19;5072344;28;20759;-78
2023/10/14 05:05:43;;;;;;;30.20;9.77;;;;;;;13.50;79.75;95171.69;5036773;28;20476;-77
2023/10/14 05:08:15;;;;;;;19.93;8.47;;;;;;;13.62;78.47;95178.50;5072209;28;20451;-79
2023/10/14 05:10:43;;;;;;;16.27;7.40;;;;;;;13.78;76.79;95169.16;5072168;28;20469;-78
2023/10/14 05:13:12;;;;;;;23.17;7.80;;;;;;;14.08;77.45;95168.91;5073407;28;20923;-78
2023/10/14 05:15:52;;;;;;;12.83;7.70;;;;;;;14.69;75.94;95175.47;5075794;28;20492;-79
2023/10/14 05:18:27;;;;;;;9.03;6.27;;;;;;;15.54;72.31;95171.47;5075887;28;20537;-78
2023/10/14 05:21:02;;;;;;;13.60;6.10;;;;;;;16.42;68.17;95168.59;5076128;28;20856;-78
2023/10/14 05:23:31;;;;;;;15.13;7.00;;;;;;;17.22;64.15;95170.84;5075437;28;20810;-79
2023/10/14 05:25:59;;;;;;;11.77;7.10;;;;;;;17.92;61.63;95169.38;5075832;28;20441;-79
2023/10/14 05:28:31;;;;;;;13.63;7.60;;;;;;;18.22;58.89;95178.47;5075800;28;20448;-78
2023/10/14 05:31:02;;;;;;;14.50;9.03;;;;;;;18.17;58.05;95179.97;5075359;28;20444;-76
2023/10/14 05:33:31;;;;;;;22.80;8.53;;;;;;;18.19;59.25;95177.97;5075307;28;20445;-75
2023/10/14 05:36:01;;;;;;;12.03;7.50;;;;;;;18.29;57.97;95186.59;5077935;28;20495;-75
2023/10/14 05:38:28;;;;;;;23.10;8.70;;;;;;;18.13;59.27;95186.63;5078080;28;20456;-76
2023/10/14 05:40:56;;;;;;;19.90;8.47;;;;;;;18.13;59.99;95190.09;5091464;28;20510;-76
2023/10/14 05:43:24;;;;;;;18.07;8.20;;;;;;;18.53;58.43;95183.88;5076488;28;20500;-77
2023/10/14 05:45:52;;;;;;;16.33;8.13;;;;;;;18.76;57.26;95191.09;5095128;28;20447;-79
2023/10/14 05:48:26;;;;;;;9.23;7.90;;;;;;;18.99;56.87;95193.81;5083949;28;20995;-78
2023/10/14 05:50:56;;;;;;;25.90;9.37;;;;;;;19.14;56.51;95197.41;5094269;28;20449;-78
2023/10/14 05:53:23;;;;;;;13.47;7.27;;;;;;;19.34;56.14;95197.78;5085353;28;20453;-77
2023/10/14 05:55:58;;;;;;;15.93;8.10;;;;;;;19.54;55.26;95198.19;5090644;28;20573;-78
2023/10/14 05:58:27;;;;;;;18.27;6.80;;;;;;;19.98;54.73;95198.34;5094832;28;20782;-78
2023/10/14 06:00:55;;;;;;;14.90;7.60;;;;;;;20.30;52.86;95200.69;5090649;28;20440;-79
2023/10/14 06:03:23;;;;;;;13.60;7.30;;;;;;;20.47;52.21;95204.03;5086386;28;20443;-78
2023/10/14 06:05:50;;;;;;;21.47;7.43;;;;;;;20.44;53.12;95206.25;5089079;28;20468;-78
2023/10/14 06:08:18;;;;;;;18.93;7.37;;;;;;;20.66;52.02;95206.16;5073294;28;20451;-75
2023/10/14 06:10:44;;;;;;;12.83;7.20;;;;;;;20.40;51.81;95203.13;5074808;28;20452;-78
2023/10/14 06:13:13;;;;;;;16.07;7.47;;;;;;;20.13;52.87;95201.03;5080535;28;20540;-78
2023/10/14 06:15:41;;;;;;;11.17;7.40;;;;;;;20.15;53.28;95207.00;5088585;28;20525;-77
2023/10/14 06:18:09;;;;;;;15.80;7.73;;;;;;;20.28;53.42;95196.56;5086879;28;20461;-77
2023/10/14 06:20:37;;;;;;;35.87;9.07;;;;;;;20.05;53.59;95208.09;5075189;28;20443;-75
2023/10/14 06:23:08;;;;;;;15.87;6.63;;;;;;;20.14;54.52;95198.19;5090802;28;20441;-80
2023/10/14 06:25:36;;;;;;;8.63;6.97;;;;;;;19.84;54.87;95207.94;5067382;28;20466;-82
2023/10/14 06:28:04;;;;;;;15.40;7.50;;;;;;;19.97;54.82;95204.69;5094576;28;20445;-77
2023/10/14 06:30:33;;;;;;;15.87;6.93;;;;;;;20.24;54.95;95201.44;5094850;28;20464;-78
2023/10/14 06:33:03;;;;;;;15.93;6.17;;;;;;;20.47;54.31;95189.88;5094876;28;20439;-79
2023/10/14 06:35:31;;;;;;;11.33;6.10;;;;;;;20.76;53.12;95192.53;5094882;28;20500;-76
2023/10/14 06:38:00;;;;;;;14.40;7.13;;;;;;;20.94;51.83;95187.66;5094405;28;20471;-79
2023/10/14 06:40:32;;;;;;;11.50;6.53;;;;;;;21.18;52.62;95183.00;5094521;28;20455;-79
2023/10/14 06:43:00;;;;;;;11.90;7.20;;;;;;;21.33;50.79;95192.66;5094384;28;20455;-79
2023/10/14 06:45:32;;;;;;;12.90;7.00;;;;;;;21.17;51.30;95192.03;5094261;28;20440;-78
2023/10/14 06:47:59;;;;;;;18.03;6.33;;;;;;;21.25;51.32;95189.28;5059828;28;20477;-79
2023/10/14 06:50:26;;;;;;;17.07;7.90;;;;;;;20.83;52.17;95182.81;5094229;28;20938;-78
2023/10/14 06:52:58;;;;;;;19.83;7.50;;;;;;;21.16;51.08;95185.03;5094447;28;20808;-79
2023/10/14 06:55:27;;;;;;;27.97;8.40;;;;;;;21.04;51.13;95182.00;5094365;28;20483;-81
2023/10/14 06:57:55;;;;;;;16.87;7.67;;;;;;;20.92;51.58;95183.53;5094262;28;20823;-78
2023/10/14 07:00:30;;;;;;;12.17;8.17;;;;;;;20.64;52.18;95178.84;5094307;28;20440;-79
2023/10/14 07:03:03;;;;;;;18.97;9.30;;;;;;;20.93;51.25;95179.84;5094329;28;20438;-78
2023/10/14 07:05:30;;;;;;;11.40;6.93;;;;;;;20.98;51.46;95172.91;5093961;28;20453;-78
2023/10/14 07:07:59;;;;;;;16.00;8.23;;;;;;;21.14;51.87;95171.06;5094067;28;20450;-78
2023/10/14 07:10:32;;;;;;;12.83;6.87;;;;;;;20.66;52.20;95181.34;5093731;28;20448;-78
2023/10/14 07:12:58;;;;;;;17.30;7.30;;;;;;;20.60;52.46;95166.06;5075505;28;20446;-79
2023/10/14 07:15:26;;;;;;;12.77;6.40;;;;;;;20.70;52.98;95171.94;5094156;28;20910;-78
2023/10/14 07:17:54;;;;;;;11.20;7.10;;;;;;;20.16;53.11;95169.50;5093891;28;20440;-78
2023/10/14 07:20:22;;;;;;;10.67;6.57;;;;;;;20.15;53.73;95167.84;5075388;28;20449;-77
2023/10/14 07:22:49;;;;;;;12.03;7.07;;;;;;;19.78;54.15;95179.34;5058151;28;20465;-78
2023/10/14 07:25:16;;;;;;;12.97;6.30;;;;;;;19.39;55.12;95160.84;5094166;28;20781;-77
2023/10/14 07:27:46;;;;;;;13.23;7.40;;;;;;;19.56;55.83;95165.06;5093844;28;20440;-78
2023/10/14 07:30:17;;;;;;;11.70;5.87;;;;;;;19.48;56.23;95157.94;5093861;28;20958;-78
2023/10/14 07:32:44;;;;;;;12.00;7.10;;;;;;;19.73;56.25;95160.44;5093625;28;21482;-78
2023/10/14 07:35:13;;;;;;;8.93;6.80;;;;;;;19.83;55.70;95160.19;5092856;28;20491;-78
2023/10/14 07:37:46;;;;;;;12.17;6.50;;;;;;;19.89;55.51;95143.47;5093501;28;20438;-77
2023/10/14 07:40:22;;;;;;;10.03;7.00;;;;;;;20.08;55.38;95151.78;5093634;28;20438;-78
2023/10/14 07:42:59;;;;;;;12.60;8.07;;;;;;;20.23;54.23;95150.94;5093306;28;20462;-79
2023/10/14 07:45:28;;;;;;;11.70;7.87;;;;;;;20.10;53.86;95141.75;5093394;28;20535;-77
2023/10/14 07:47:56;;;;;;;10.40;7.00;;;;;;;20.09;54.38;95147.28;5093227;28;20947;-78
2023/10/14 07:50:23;;;;;;;9.63;6.93;;;;;;;20.25;54.25;95141.78;5092172;28;20507;-78
2023/10/14 07:52:51;;;;;;;14.83;7.63;;;;;;;20.28;53.42;95141.41;5092069;28;20791;-78
2023/10/14 07:55:22;;;;;;;12.60;7.20;;;;;;;20.21;53.66;95143.13;5092198;28;20486;-77
2023/10/14 07:57:49;;;;;;;9.73;7.03;;;;;;;20.30;53.58;95139.41;5092113;28;20622;-78
2023/10/14 08:00:18;;;;;;;10.50;7.80;;;;;;;20.37;53.88;95137.63;5092234;28;20446;-78
2023/10/14 08:02:45;;;;;;;8.83;6.87;;;;;;;20.57;54.74;95126.47;5092375;28;20447;-78
2023/10/14 08:05:12;;;;;;;11.93;7.23;;;;;;;20.69;53.33;95127.63;5092107;28;20476;-78
2023/10/14 08:07:42;;;;;;;9.87;8.23;;;;;;;20.65;52.11;95121.00;5056215;28;20434;-77
2023/10/14 08:10:21;;;;;;;9.07;6.80;;;;;;;20.45;52.46;95127.91;5092050;28;20438;-78
2023/10/14 08:12:52;;;;;;;9.60;6.40;;;;;;;20.52;52.41;95120.81;5092132;28;20534;-78
2023/10/14 08:15:20;;;;;;;22.27;8.53;;;;;;;20.73;52.94;95118.22;5092195;28;20487;-77
2023/10/14 08:17:49;;;;;;;15.00;7.47;;;;;;;20.77;52.42;95116.84;5091999;28;20449;-77
2023/10/14 08:20:18;;;;;;;17.40;7.17;;;;;;;21.01;52.81;95113.84;5091979;28;20444;-77
2023/10/14 08:22:48;;;;;;;12.40;6.37;;;;;;;21.23;51.96;95112.06;5092112;28;20451;-78
2023/10/14 08:25:18;;;;;;;12.23;7.00;;;;;;;21.15;50.93;95108.66;5091801;28;20499;-77
2023/10/14 08:27:46;;;;;;;8.93;7.53;;;;;;;21.31;50.18;95109.25;5092262;28;20447;-78
2023/10/14 08:30:13;;;;;;;13.80;7.27;;;;;;;21.52;50.17;95104.94;5092156;28;20471;-78
2023/10/14 08:32:42;;;;;;;8.77;6.67;;;;;;;21.70;49.65;95102.63;5091745;28;20449;-78
2023/10/14 08:35:15;;;;;;;9.93;6.20;;;;;;;21.81;49.17;95099.41;5091451;28;20524;-78
2023/10/14 08:37:48;;;;;;;12.70;7.17;;;;;;;21.92;48.81;95092.72;5092149;28;20495;-78
2023/10/14 08:40:17;;;;;;;10.73;7.57;;;;;;;21.59;48.93;95093.28;5091656;28;20483;-78
2023/10/14 08:42:50;;;;;;;7.83;6.10;;;;;;;21.57;49.57;95081.97;5091956;28;20447;-77
2023/10/14 08:45:19;;;;;;;17.77;7.17;;;;;;;21.80;48.88;95084.41;5092051;28;20474;-77
2023/10/14 08:47:54;;;;;;;11.63;6.30;;;;;;;21.94;48.96;95077.31;5094328;28;20445;-77
2023/10/14 08:50:23;;;;;;;10.50;6.73;;;;;;;22.08;47.27;95079.09;5096009;28;20498;-78
2023/10/14 08:52:53;;;;;;;17.40;7.40;;;;;;;22.22;47.13;95069.28;5095465;28;20933;-77
2023/10/14 08:55:21;;;;;;;11.23;6.57;;;;;;;22.36;46.68;95068.34;5095723;28;20490;-78
2023/10/14 08:57:48;;;;;;;8.90;6.70;;;;;;;22.33;47.37;95066.06;5095128;28;20438;-78
2023/10/14 09:00:20;;;;;;;12.10;6.60;;;;;;;22.45;47.26;95064.47;5095171;28;20466;-78
2023/10/14 09:02:53;;;;;;;17.13;8.10;;;;;;;22.60;47.03;95061.66;5095629;28;20441;-77
2023/10/14 09:05:19;;;;;;;10.90;7.83;;;;;;;22.50;46.68;95058.53;5095312;28;20447;-77
2023/10/14 09:07:50;;;;;;;17.63;6.13;;;;;;;22.56;46.07;95055.06;5076284;28;20436;-77
2023/10/14 09:10:19;;;;;;;7.50;5.80;;;;;;;22.61;46.50;95055.28;5095649;28;20466;-78
2023/10/14 09:13:00;;;;;;;18.93;8.47;;;;;;;22.63;46.98;95065.78;5059602;28;20443;-79
2023/10/14 09:15:28;;;;;;;17.63;7.30;;;;;;;22.68;47.02;95053.47;5095092;28;20476;-77
2023/10/14 09:17:57;;;;;;;9.30;6.13;;;;;;;22.82;47.02;95055.16;5095278;28;20495;-77
2023/10/14 09:20:31;;;;;;;17.60;6.90;;;;;;;22.89;46.36;95043.69;5095113;28;20444;-77
2023/10/14 09:23:17;;;;;;;14.70;7.23;;;;;;;22.84;46.52;95036.25;5094889;28;20535;-77
2023/10/14 09:25:44;;;;;;;16.97;6.67;;;;;;;22.89;45.63;95033.81;5094858;28;20449;-78
2023/10/14 09:28:12;;;;;;;13.37;6.90;;;;;;;22.97;45.60;95033.59;5094720;28;20433;-77
2023/10/14 09:30:44;;;;;;;10.70;6.60;;;;;;;23.05;45.22;95024.56;5095323;28;20429;-77
2023/10/14 09:33:16;;;;;;;10.37;6.30;;;;;;;23.08;45.14;95022.28;5094833;28;20813;-77
2023/10/14 09:35:48;;;;;;;8.97;6.50;;;;;;;23.08;44.74;95011.59;5094617;28;20583;-77
2023/10/14 09:38:18;;;;;;;14.73;6.50;;;;;;;23.05;44.83;95012.00;5094750;28;20485;-77
2023/10/14 09:40:50;;;;;;;12.70;5.60;;;;;;;22.88;44.95;95005.41;5058591;28;20430;-78
2023/10/14 09:43:18;;;;;;;11.73;5.83;;;;;;;23.01;45.94;95009.94;5094414;28;20952;-77
2023/10/14 09:45:47;;;;;;;12.63;6.23;;;;;;;23.08;44.80;95000.06;5094260;28;20452;-77
2023/10/14 09:48:16;;;;;;;14.03;5.63;;;;;;;23.15;44.67;94991.03;5094395;28;20447;-77
2023/10/14 09:50:45;;;;;;;12.60;6.47;;;;;;;23.16;44.36;94987.31;5094277;28;20448;-78
2023/10/14 09:53:14;;;;;;;11.10;6.67;;;;;;;23.14;44.33;94983.19;5094366;28;20863;-78
2023/10/14 09:55:42;;;;;;;10.80;6.10;;;;;;;23.16;44.56;94973.09;5094359;28;20512;-77
2023/10/14 09:58:10;;;;;;;13.20;5.40;;;;;;;23.17;43.51;94972.06;5093591;28;20443;-78
2023/10/14 10:00:37;;;;;;;9.63;6.27;;;;;;;23.16;44.95;94965.06;5094196;28;20520;-78
2023/10/14 10:03:06;;;;;;;6.83;5.37;;;;;;;23.22;44.64;94963.41;5094270;28;20446;-77
2023/10/14 10:05:40;;;;;;;12.33;9.53;;;;;;;23.22;43.56;94958.88;5094539;28;20446;-77
2023/10/14 10:08:24;;;;;;;8.90;6.10;;;;;;;23.30;43.90;94944.47;5076521;28;20496;-77
2023/10/14 10:10:52;;;;;;;13.23;6.70;;;;;;;23.41;44.35;94936.59;5094988;28;20510;-77
2023/10/14 10:13:23;;;;;;;6.50;5.33;;;;;;;23.46;43.93;94939.50;5092786;28;20790;-78
2023/10/14 10:15:51;;;;;;;13.97;7.80;;;;;;;23.48;44.18;94936.63;5095126;28;20488;-83
2023/10/14 10:18:19;;;;;;;10.50;6.20;;;;;;;23.55;44.30;94928.56;5094893;28;20490;-77
2023/10/14 10:20:55;;;;;;;15.40;7.87;;;;;;;23.60;44.16;94920.75;5095347;28;20450;-80
2023/10/14 10:23:24;;;;;;;20.77;7.33;;;;;;;23.55;43.79;94921.34;5095085;28;20446;-79
2023/10/14 10:25:51;;;;;;;11.20;6.77;;;;;;;23.57;44.45;94918.50;5095040;28;20837;-78
2023/10/14 10:28:40;;;;;;;10.63;6.53;;;;;;;23.63;44.17;94912.28;5094262;28;20532;-80
2023/10/14 10:31:10;;;;;;;11.33;7.13;;;;;;;23.65;45.21;94899.50;5094652;28;20469;-79
2023/10/14 10:33:52;;;;;;;9.83;7.20;;;;;;;23.74;43.89;94898.25;5094911;28;20444;-77
2023/10/14 10:36:24;;;;;;;18.73;8.00;;;;;;;23.79;43.71;94890.41;5075923;28;20501;-80
2023/10/14 10:38:53;;;;;;;11.70;6.93;;;;;;;23.83;44.56;94891.63;5058871;28;20914;-80
2023/10/14 10:41:25;;;;;;;12.43;6.63;;;;;;;23.85;44.88;94884.19;5094436;28;20447;-80
2023/10/14 10:43:53;;;;;;;12.27;6.43;;;;;;;23.92;43.95;94884.97;5094383;28;20443;-78
2023/10/14 10:46:30;;;;;;;16.70;7.50;;;;;;;23.91;43.60;94877.97;5094142;28;20448;-78
2023/10/14 10:48:57;;;;;;;13.67;6.03;;;;;;;23.93;43.08;94873.22;5094436;28;20447;-80
2023/10/14 10:51:29;;;;;;;7.90;5.80;;;;;;;23.99;43.35;94872.38;5094448;28;20450;-80
2023/10/14 10:53:59;;;;;;;8.87;6.37;;;;;;;24.10;44.14;94858.31;5094364;28;20443;-78
2023/10/14 10:56:29;;;;;;;12.63;5.43;;;;;;;24.12;44.09;94858.09;5094092;28;20892;-76
2023/10/14 10:58:58;;;;;;;13.50;6.77;;;;;;;24.19;43.02;94852.69;5057817;28;20424;-80
2023/10/14 11:01:25;;;;;;;9.17;6.13;;;;;;;24.23;44.36;94848.53;5094169;28;20446;-82
2023/10/14 11:03:52;;;;;;;10.25;6.68;;;;;;;24.43;43.01;94841.22;5093144;28;20432;-81
2023/10/14 11:06:19;;;;;;;15.23;6.57;;;;;;;24.52;42.92;94839.09;5094374;28;20209;-80
2023/10/14 11:08:48;;;;;;;9.27;5.90;;;;;;;24.55;42.85;94831.44;5058832;28;20439;-83
2023/10/14 11:11:15;;;;;;;9.20;5.50;;;;;;;24.61;41.72;94835.94;5094205;28;20781;-82
2023/10/14 11:13:42;;;;;;;7.80;6.67;;;;;;;24.65;44.29;94818.38;5094867;28;20440;-79
2023/10/14 11:16:13;;;;;;;10.30;6.10;;;;;;;24.71;41.88;94822.84;5093426;28;20479;-80
2023/10/14 11:18:47;;;;;;;10.70;5.87;;;;;;;24.85;49.17;94817.38;5095323;28;20440;-79
2023/10/14 11:21:16;;;;;;;8.17;6.63;;;;;;;24.94;41.74;94814.19;5075439;28;20459;-80
2023/10/14 11:23:44;;;;;;;12.10;7.80;;;;;;;25.00;48.15;94804.47;5094249;28;20500;-81
2023/10/14 11:26:15;;;;;;;11.00;5.70;;;;;;;25.00;42.04;94802.59;5093609;28;20436;-80
2023/10/14 11:28:45;;;;;;;10.60;7.10;;;;;;;25.11;45.02;94808.28;5093562;28;20452;-79
2023/10/14 11:31:12;;;;;;;16.23;5.47;;;;;;;25.07;43.00;94790.97;5093835;28;20505;-79
2023/10/14 11:33:39;;;;;;;6.90;5.73;;;;;;;25.15;41.98;94802.22;5093406;28;20455;-79
2023/10/14 11:36:07;;;;;;;9.33;5.40;;;;;;;25.16;43.09;94795.84;5094155;28;20491;-77
2023/10/14 11:38:42;;;;;;;9.27;5.70;;;;;;;25.17;40.97;94785.94;5093399;28;20439;-78
2023/10/14 11:41:12;;;;;;;13.87;5.47;;;;;;;25.20;44.89;94785.47;5094324;28;20773;-78
2023/10/14 11:43:43;;;;;;;9.83;5.10;;;;;;;25.20;40.88;94785.47;5094368;28;20448;-78